sensor_id;sensor_type;location;lat;lon;timestamp;temperature;humidity
38237;DHT22;50101;49.438;11.098;2022-09-12T00:01:35;22.00;66.60
38237;DHT22;50101;49.438;11.098;2022-09-12T00:04:02;22.10;66.60
38237;DHT22;50101;49.438;11.098;2022-09-12T00:06:34;22.10;66.00
38237;DHT22;50101;49.438;11.098;2022-09-12T00:09:08;22.10;66.60
38237;DHT22;50101;49.438;11.098;2022-09-12T00:11:40;22.00;66.50
38237;DHT22;50101;49.438;11.098;2022-09-12T00:14:10;22.00;66.40
38237;DHT22;50101;49.438;11.098;2022-09-12T00:16:37;22.00;66.40
38237;DHT22;50101;49.438;11.098;2022-09-12T00:19:05;22.00;66.40
38237;DHT22;50101;49.438;11.098;2022-09-12T00:21:34;22.00;66.40
38237;DHT22;50101;49.438;11.098;2022-09-12T00:24:02;22.00;66.40
38237;DHT22;50101;49.438;11.098;2022-09-12T00:26:30;22.00;66.30
38237;DHT22;50101;49.438;11.098;2022-09-12T00:28:57;22.00;66.40
38237;DHT22;50101;49.438;11.098;2022-09-12T00:31:25;22.00;66.40
38237;DHT22;50101;49.438;11.098;2022-09-12T00:33:55;22.00;66.40
38237;DHT22;50101;49.438;11.098;2022-09-12T00:36:23;22.00;65.80
38237;DHT22;50101;49.438;11.098;2022-09-12T00:38:51;22.00;66.40
38237;DHT22;50101;49.438;11.098;2022-09-12T00:41:24;22.00;66.30
38237;DHT22;50101;49.438;11.098;2022-09-12T00:43:53;22.00;66.30
38237;DHT22;50101;49.438;11.098;2022-09-12T00:51:25;22.00;66.30
38237;DHT22;50101;49.438;11.098;2022-09-12T00:53:53;22.00;66.30
38237;DHT22;50101;49.438;11.098;2022-09-12T00:56:21;22.00;65.70
38237;DHT22;50101;49.438;11.098;2022-09-12T00:58:54;21.30;65.50
38237;DHT22;50101;49.438;11.098;2022-09-12T01:01:23;22.00;66.20
38237;DHT22;50101;49.438;11.098;2022-09-12T01:03:52;22.00;66.20
38237;DHT22;50101;49.438;11.098;2022-09-12T01:06:33;22.00;66.20
38237;DHT22;50101;49.438;11.098;2022-09-12T01:09:02;22.00;66.10
38237;DHT22;50101;49.438;11.098;2022-09-12T01:11:35;22.00;66.00
38237;DHT22;50101;49.438;11.098;2022-09-12T01:14:02;22.00;66.10
38237;DHT22;50101;49.438;11.098;2022-09-12T01:16:29;22.00;66.10
38237;DHT22;50101;49.438;11.098;2022-09-12T01:22:00;22.00;66.10
38237;DHT22;50101;49.438;11.098;2022-09-12T01:24:45;22.00;66.10
38237;DHT22;50101;49.438;11.098;2022-09-12T01:27:34;22.00;66.20
38237;DHT22;50101;49.438;11.098;2022-09-12T01:38:37;22.00;66.10
38237;DHT22;50101;49.438;11.098;2022-09-12T01:44:15;22.00;66.00
38237;DHT22;50101;49.438;11.098;2022-09-12T01:47:05;22.00;66.00
38237;DHT22;50101;49.438;11.098;2022-09-12T01:49:54;21.90;65.80
38237;DHT22;50101;49.438;11.098;2022-09-12T01:55:09;21.90;65.80
38237;DHT22;50101;49.438;11.098;2022-09-12T01:57:55;21.90;65.80
38237;DHT22;50101;49.438;11.098;2022-09-12T02:00:23;21.90;65.80
38237;DHT22;50101;49.438;11.098;2022-09-12T02:03:12;21.90;65.70
38237;DHT22;50101;49.438;11.098;2022-09-12T02:05:55;22.00;65.80
38237;DHT22;50101;49.438;11.098;2022-09-12T02:08:30;22.00;65.70
38237;DHT22;50101;49.438;11.098;2022-09-12T02:11:07;21.90;65.70
38237;DHT22;50101;49.438;11.098;2022-09-12T02:13:39;21.90;65.70
38237;DHT22;50101;49.438;11.098;2022-09-12T02:16:19;21.90;65.70
38237;DHT22;50101;49.438;11.098;2022-09-12T02:18:52;21.90;65.60
38237;DHT22;50101;49.438;11.098;2022-09-12T02:21:22;21.90;65.60
38237;DHT22;50101;49.438;11.098;2022-09-12T02:23:54;21.90;65.50
38237;DHT22;50101;49.438;11.098;2022-09-12T02:26:35;21.90;65.50
38237;DHT22;50101;49.438;11.098;2022-09-12T02:29:03;21.90;65.50
38237;DHT22;50101;49.438;11.098;2022-09-12T02:31:41;21.90;65.50
38237;DHT22;50101;49.438;11.098;2022-09-12T02:37:20;21.90;65.50
38237;DHT22;50101;49.438;11.098;2022-09-12T02:39:54;21.90;65.50
38237;DHT22;50101;49.438;11.098;2022-09-12T02:42:23;21.90;65.50
38237;DHT22;50101;49.438;11.098;2022-09-12T02:44:51;21.90;65.50
38237;DHT22;50101;49.438;11.098;2022-09-12T02:47:41;21.90;64.90
38237;DHT22;50101;49.438;11.098;2022-09-12T02:50:09;21.90;65.50
38237;DHT22;50101;49.438;11.098;2022-09-12T02:52:36;21.90;65.50
38237;DHT22;50101;49.438;11.098;2022-09-12T02:55:06;21.90;64.80
38237;DHT22;50101;49.438;11.098;2022-09-12T02:57:33;21.90;65.40
38237;DHT22;50101;49.438;11.098;2022-09-12T03:00:00;21.90;65.40
38237;DHT22;50101;49.438;11.098;2022-09-12T03:05:46;21.90;65.20
38237;DHT22;50101;49.438;11.098;2022-09-12T03:14:51;21.90;65.40
38237;DHT22;50101;49.438;11.098;2022-09-12T03:17:38;21.90;65.30
38237;DHT22;50101;49.438;11.098;2022-09-12T03:20:28;21.80;65.20
38237;DHT22;50101;49.438;11.098;2022-09-12T03:23:03;21.80;65.00
38237;DHT22;50101;49.438;11.098;2022-09-12T03:25:43;21.80;64.50
38237;DHT22;50101;49.438;11.098;2022-09-12T03:28:17;21.80;65.10
38237;DHT22;50101;49.438;11.098;2022-09-12T03:30:46;21.80;65.00
38237;DHT22;50101;49.438;11.098;2022-09-12T03:33:15;21.80;65.10
38237;DHT22;50101;49.438;11.098;2022-09-12T03:35:44;21.80;65.10
38237;DHT22;50101;49.438;11.098;2022-09-12T03:38:12;21.80;65.00
38237;DHT22;50101;49.438;11.098;2022-09-12T03:40:39;21.80;65.00
38237;DHT22;50101;49.438;11.098;2022-09-12T03:43:06;21.80;64.90
38237;DHT22;50101;49.438;11.098;2022-09-12T03:45:34;21.80;64.30
38237;DHT22;50101;49.438;11.098;2022-09-12T03:48:01;21.80;65.00
38237;DHT22;50101;49.438;11.098;2022-09-12T03:50:28;21.80;64.90
38237;DHT22;50101;49.438;11.098;2022-09-12T03:52:58;21.80;64.90
38237;DHT22;50101;49.438;11.098;2022-09-12T03:55:25;21.80;64.90
38237;DHT22;50101;49.438;11.098;2022-09-12T03:57:53;21.80;64.90
38237;DHT22;50101;49.438;11.098;2022-09-12T04:00:20;21.80;64.90
38237;DHT22;50101;49.438;11.098;2022-09-12T04:02:47;21.80;64.90
38237;DHT22;50101;49.438;11.098;2022-09-12T04:05:14;21.80;64.90
38237;DHT22;50101;49.438;11.098;2022-09-12T04:07:40;21.80;64.90
38237;DHT22;50101;49.438;11.098;2022-09-12T04:10:07;21.80;64.90
38237;DHT22;50101;49.438;11.098;2022-09-12T04:12:35;21.80;64.90
38237;DHT22;50101;49.438;11.098;2022-09-12T04:15:02;21.80;64.80
38237;DHT22;50101;49.438;11.098;2022-09-12T04:17:28;21.80;64.90
38237;DHT22;50101;49.438;11.098;2022-09-12T04:19:55;21.80;64.90
38237;DHT22;50101;49.438;11.098;2022-09-12T04:22:21;21.80;64.90
38237;DHT22;50101;49.438;11.098;2022-09-12T04:24:48;21.80;64.80
38237;DHT22;50101;49.438;11.098;2022-09-12T04:27:15;21.80;64.70
38237;DHT22;50101;49.438;11.098;2022-09-12T04:29:42;21.80;64.80
38237;DHT22;50101;49.438;11.098;2022-09-12T04:32:09;21.80;64.60
38237;DHT22;50101;49.438;11.098;2022-09-12T04:34:35;21.80;64.80
38237;DHT22;50101;49.438;11.098;2022-09-12T04:37:02;21.80;64.60
38237;DHT22;50101;49.438;11.098;2022-09-12T04:39:29;21.80;64.50
38237;DHT22;50101;49.438;11.098;2022-09-12T04:41:55;21.80;64.60
38237;DHT22;50101;49.438;11.098;2022-09-12T04:44:22;21.80;64.80
38237;DHT22;50101;49.438;11.098;2022-09-12T04:46:49;22.80;65.90
38237;DHT22;50101;49.438;11.098;2022-09-12T04:49:15;21.80;64.90
38237;DHT22;50101;49.438;11.098;2022-09-12T04:51:44;21.80;64.90
38237;DHT22;50101;49.438;11.098;2022-09-12T04:54:17;21.80;64.90
38237;DHT22;50101;49.438;11.098;2022-09-12T04:56:47;21.80;64.90
38237;DHT22;50101;49.438;11.098;2022-09-12T04:59:16;22.70;65.80
38237;DHT22;50101;49.438;11.098;2022-09-12T05:01:43;21.90;64.70
38237;DHT22;50101;49.438;11.098;2022-09-12T05:04:10;21.90;64.70
38237;DHT22;50101;49.438;11.098;2022-09-12T05:06:39;21.90;64.60
38237;DHT22;50101;49.438;11.098;2022-09-12T05:09:08;21.90;64.60
38237;DHT22;50101;49.438;11.098;2022-09-12T05:11:38;21.90;64.60
38237;DHT22;50101;49.438;11.098;2022-09-12T05:14:25;21.90;64.60
38237;DHT22;50101;49.438;11.098;2022-09-12T05:16:51;21.90;63.90
38237;DHT22;50101;49.438;11.098;2022-09-12T05:19:18;21.90;64.50
38237;DHT22;50101;49.438;11.098;2022-09-12T05:21:45;21.90;64.50
38237;DHT22;50101;49.438;11.098;2022-09-12T05:24:11;22.00;64.50
38237;DHT22;50101;49.438;11.098;2022-09-12T05:26:38;21.90;64.30
38237;DHT22;50101;49.438;11.098;2022-09-12T05:29:05;21.90;64.30
38237;DHT22;50101;49.438;11.098;2022-09-12T05:31:32;21.90;64.20
38237;DHT22;50101;49.438;11.098;2022-09-12T05:33:59;21.90;64.30
38237;DHT22;50101;49.438;11.098;2022-09-12T05:36:28;21.90;64.40
38237;DHT22;50101;49.438;11.098;2022-09-12T05:38:55;21.90;64.30
38237;DHT22;50101;49.438;11.098;2022-09-12T05:41:24;21.90;64.40
38237;DHT22;50101;49.438;11.098;2022-09-12T05:43:53;21.90;64.40
38237;DHT22;50101;49.438;11.098;2022-09-12T05:46:22;22.00;64.40
38237;DHT22;50101;49.438;11.098;2022-09-12T05:48:49;22.00;64.40
38237;DHT22;50101;49.438;11.098;2022-09-12T05:51:27;22.00;64.20
38237;DHT22;50101;49.438;11.098;2022-09-12T05:53:58;22.00;64.40
38237;DHT22;50101;49.438;11.098;2022-09-12T05:56:30;22.10;64.20
38237;DHT22;50101;49.438;11.098;2022-09-12T05:59:17;22.20;64.20
38237;DHT22;50101;49.438;11.098;2022-09-12T06:01:45;22.20;64.30
38237;DHT22;50101;49.438;11.098;2022-09-12T06:04:13;22.20;64.50
38237;DHT22;50101;49.438;11.098;2022-09-12T06:06:41;22.20;63.70
38237;DHT22;50101;49.438;11.098;2022-09-12T06:09:11;22.20;64.30
38237;DHT22;50101;49.438;11.098;2022-09-12T06:11:38;22.30;64.80
38237;DHT22;50101;49.438;11.098;2022-09-12T06:14:09;22.30;64.60
38237;DHT22;50101;49.438;11.098;2022-09-12T06:16:37;22.40;64.70
38237;DHT22;50101;49.438;11.098;2022-09-12T06:19:06;22.40;64.60
38237;DHT22;50101;49.438;11.098;2022-09-12T06:21:33;22.40;64.80
38237;DHT22;50101;49.438;11.098;2022-09-12T06:24:04;21.10;63.60
38237;DHT22;50101;49.438;11.098;2022-09-12T06:26:32;22.40;65.10
38237;DHT22;50101;49.438;11.098;2022-09-12T06:28:59;22.40;64.90
38237;DHT22;50101;49.438;11.098;2022-09-12T06:31:31;22.40;65.00
38237;DHT22;50101;49.438;11.098;2022-09-12T06:34:04;22.40;65.20
38237;DHT22;50101;49.438;11.098;2022-09-12T06:36:33;22.40;65.20
38237;DHT22;50101;49.438;11.098;2022-09-12T06:39:13;22.40;65.40
38237;DHT22;50101;49.438;11.098;2022-09-12T06:41:40;22.40;65.50
38237;DHT22;50101;49.438;11.098;2022-09-12T06:44:12;22.30;65.40
38237;DHT22;50101;49.438;11.098;2022-09-12T06:46:40;22.40;65.50
38237;DHT22;50101;49.438;11.098;2022-09-12T06:49:07;22.40;65.50
38237;DHT22;50101;49.438;11.098;2022-09-12T06:51:34;22.40;65.50
38237;DHT22;50101;49.438;11.098;2022-09-12T06:54:04;22.40;64.50
38237;DHT22;50101;49.438;11.098;2022-09-12T06:56:30;22.20;63.10
38237;DHT22;50101;49.438;11.098;2022-09-12T06:58:58;22.20;63.70
38237;DHT22;50101;49.438;11.098;2022-09-12T07:01:29;22.20;63.80
38237;DHT22;50101;49.438;11.098;2022-09-12T07:03:58;22.10;63.50
38237;DHT22;50101;49.438;11.098;2022-09-12T07:06:27;22.10;63.20
38237;DHT22;50101;49.438;11.098;2022-09-12T07:08:58;22.10;63.30
38237;DHT22;50101;49.438;11.098;2022-09-12T07:11:27;22.10;62.70
38237;DHT22;50101;49.438;11.098;2022-09-12T07:13:56;22.00;63.10
38237;DHT22;50101;49.438;11.098;2022-09-12T07:16:23;22.00;62.50
38237;DHT22;50101;49.438;11.098;2022-09-12T07:18:53;22.10;62.80
38237;DHT22;50101;49.438;11.098;2022-09-12T07:21:20;22.10;63.30
38237;DHT22;50101;49.438;11.098;2022-09-12T07:23:47;22.10;63.30
38237;DHT22;50101;49.438;11.098;2022-09-12T07:26:15;22.10;63.10
38237;DHT22;50101;49.438;11.098;2022-09-12T07:28:42;22.20;63.30
38237;DHT22;50101;49.438;11.098;2022-09-12T07:31:16;22.20;63.60
38237;DHT22;50101;49.438;11.098;2022-09-12T07:33:43;22.10;63.50
38237;DHT22;50101;49.438;11.098;2022-09-12T07:36:14;22.10;63.60
38237;DHT22;50101;49.438;11.098;2022-09-12T07:38:41;22.10;63.70
38237;DHT22;50101;49.438;11.098;2022-09-12T07:41:13;22.10;63.80
38237;DHT22;50101;49.438;11.098;2022-09-12T07:43:40;22.00;63.60
38237;DHT22;50101;49.438;11.098;2022-09-12T07:46:07;22.10;63.70
38237;DHT22;50101;49.438;11.098;2022-09-12T07:48:35;22.10;63.80
38237;DHT22;50101;49.438;11.098;2022-09-12T07:51:04;22.10;63.90
38237;DHT22;50101;49.438;11.098;2022-09-12T07:53:37;22.10;63.70
38237;DHT22;50101;49.438;11.098;2022-09-12T07:56:06;22.20;63.40
38237;DHT22;50101;49.438;11.098;2022-09-12T07:58:34;22.20;64.00
38237;DHT22;50101;49.438;11.098;2022-09-12T08:01:09;22.20;64.20
38237;DHT22;50101;49.438;11.098;2022-09-12T08:03:42;22.30;64.40
38237;DHT22;50101;49.438;11.098;2022-09-12T08:06:11;22.30;63.90
38237;DHT22;50101;49.438;11.098;2022-09-12T08:08:39;22.30;64.50
38237;DHT22;50101;49.438;11.098;2022-09-12T08:11:09;22.40;64.70
38237;DHT22;50101;49.438;11.098;2022-09-12T08:13:37;22.40;64.60
38237;DHT22;50101;49.438;11.098;2022-09-12T08:16:06;22.50;63.90
38237;DHT22;50101;49.438;11.098;2022-09-12T08:18:34;22.40;64.40
38237;DHT22;50101;49.438;11.098;2022-09-12T08:21:04;22.50;64.50
38237;DHT22;50101;49.438;11.098;2022-09-12T08:23:32;22.50;64.70
38237;DHT22;50101;49.438;11.098;2022-09-12T08:26:00;22.50;64.80
38237;DHT22;50101;49.438;11.098;2022-09-12T08:28:33;22.50;64.80
38237;DHT22;50101;49.438;11.098;2022-09-12T08:31:00;22.40;64.80
38237;DHT22;50101;49.438;11.098;2022-09-12T08:33:28;22.50;65.40
38237;DHT22;50101;49.438;11.098;2022-09-12T08:36:25;22.50;65.30
38237;DHT22;50101;49.438;11.098;2022-09-12T08:38:55;22.50;65.50
38237;DHT22;50101;49.438;11.098;2022-09-12T08:52:53;22.50;65.60
38237;DHT22;50101;49.438;11.098;2022-09-12T08:55:30;22.50;65.60
38237;DHT22;50101;49.438;11.098;2022-09-12T08:57:59;22.60;65.70
38237;DHT22;50101;49.438;11.098;2022-09-12T09:00:47;22.60;65.70
38237;DHT22;50101;49.438;11.098;2022-09-12T09:06:06;22.60;65.10
38237;DHT22;50101;49.438;11.098;2022-09-12T09:14:38;22.70;66.00
38237;DHT22;50101;49.438;11.098;2022-09-12T09:17:30;22.60;65.40
38237;DHT22;50101;49.438;11.098;2022-09-12T09:20:09;22.40;65.40
38237;DHT22;50101;49.438;11.098;2022-09-12T09:22:48;22.30;64.90
38237;DHT22;50101;49.438;11.098;2022-09-12T09:25:25;22.30;65.40
38237;DHT22;50101;49.438;11.098;2022-09-12T09:28:01;22.30;65.50
38237;DHT22;50101;49.438;11.098;2022-09-12T09:30:30;22.30;65.40
38237;DHT22;50101;49.438;11.098;2022-09-12T09:32:59;22.30;65.40
38237;DHT22;50101;49.438;11.098;2022-09-12T09:35:47;22.30;65.40
38237;DHT22;50101;49.438;11.098;2022-09-12T09:41:16;22.30;65.50
38237;DHT22;50101;49.438;11.098;2022-09-12T09:43:46;22.30;65.60
38237;DHT22;50101;49.438;11.098;2022-09-12T09:46:13;22.20;65.60
38237;DHT22;50101;49.438;11.098;2022-09-12T09:48:43;22.20;65.60
38237;DHT22;50101;49.438;11.098;2022-09-12T09:51:11;22.20;65.60
38237;DHT22;50101;49.438;11.098;2022-09-12T09:53:58;22.30;65.00
38237;DHT22;50101;49.438;11.098;2022-09-12T09:56:33;22.30;65.70
38237;DHT22;50101;49.438;11.098;2022-09-12T10:01:57;22.40;65.50
38237;DHT22;50101;49.438;11.098;2022-09-12T10:04:33;22.40;65.40
38237;DHT22;50101;49.438;11.098;2022-09-12T10:07:17;22.40;65.30
38237;DHT22;50101;49.438;11.098;2022-09-12T10:12:33;22.40;64.50
38237;DHT22;50101;49.438;11.098;2022-09-12T10:15:02;22.40;65.10
38237;DHT22;50101;49.438;11.098;2022-09-12T10:17:42;22.40;65.30
38237;DHT22;50101;49.438;11.098;2022-09-12T10:25:54;22.50;64.90
38237;DHT22;50101;49.438;11.098;2022-09-12T10:28:34;22.50;64.90
38237;DHT22;50101;49.438;11.098;2022-09-12T10:31:03;22.60;65.00
38237;DHT22;50101;49.438;11.098;2022-09-12T10:33:41;22.60;64.80
38237;DHT22;50101;49.438;11.098;2022-09-12T10:36:09;22.50;64.60
38237;DHT22;50101;49.438;11.098;2022-09-12T10:38:36;22.50;64.60
38237;DHT22;50101;49.438;11.098;2022-09-12T10:41:06;22.60;64.70
38237;DHT22;50101;49.438;11.098;2022-09-12T10:43:40;22.60;64.70
38237;DHT22;50101;49.438;11.098;2022-09-12T10:48:42;22.50;64.80
38237;DHT22;50101;49.438;11.098;2022-09-12T10:53:56;22.60;64.80
38237;DHT22;50101;49.438;11.098;2022-09-12T11:02:01;22.60;65.00
38237;DHT22;50101;49.438;11.098;2022-09-12T11:07:54;22.60;65.30
38237;DHT22;50101;49.438;11.098;2022-09-12T11:10:48;22.60;65.30
38237;DHT22;50101;49.438;11.098;2022-09-12T11:16:31;22.60;65.30
38237;DHT22;50101;49.438;11.098;2022-09-12T11:24:59;22.60;65.70
38237;DHT22;50101;49.438;11.098;2022-09-12T11:28:05;22.60;65.70
38237;DHT22;50101;49.438;11.098;2022-09-12T11:33:43;22.60;65.80
38237;DHT22;50101;49.438;11.098;2022-09-12T11:36:50;22.60;65.70
38237;DHT22;50101;49.438;11.098;2022-09-12T11:39:23;22.60;65.70
38237;DHT22;50101;49.438;11.098;2022-09-12T11:41:57;22.70;65.90
38237;DHT22;50101;49.438;11.098;2022-09-12T11:44:33;22.70;65.80
38237;DHT22;50101;49.438;11.098;2022-09-12T11:47:09;22.70;65.80
38237;DHT22;50101;49.438;11.098;2022-09-12T11:54:42;22.60;65.10
38237;DHT22;50101;49.438;11.098;2022-09-12T11:59:53;22.50;65.90
38237;DHT22;50101;49.438;11.098;2022-09-12T12:02:28;22.50;66.00
38237;DHT22;50101;49.438;11.098;2022-09-12T12:07:21;22.40;65.80
38237;DHT22;50101;49.438;11.098;2022-09-12T12:09:50;22.40;65.80
38237;DHT22;50101;49.438;11.098;2022-09-12T12:12:22;22.40;65.70
38237;DHT22;50101;49.438;11.098;2022-09-12T12:14:52;22.50;65.80
38237;DHT22;50101;49.438;11.098;2022-09-12T12:17:24;22.50;65.60
38237;DHT22;50101;49.438;11.098;2022-09-12T12:20:02;22.50;65.60
38237;DHT22;50101;49.438;11.098;2022-09-12T12:22:34;22.50;65.60
38237;DHT22;50101;49.438;11.098;2022-09-12T12:27:49;22.40;65.50
38237;DHT22;50101;49.438;11.098;2022-09-12T12:35:42;22.50;65.40
38237;DHT22;50101;49.438;11.098;2022-09-12T12:38:31;22.50;65.40
38237;DHT22;50101;49.438;11.098;2022-09-12T12:43:53;22.50;64.70
38237;DHT22;50101;49.438;11.098;2022-09-12T12:46:24;22.50;65.30
38237;DHT22;50101;49.438;11.098;2022-09-12T12:49:03;22.40;65.10
38237;DHT22;50101;49.438;11.098;2022-09-12T12:51:58;22.40;64.50
38237;DHT22;50101;49.438;11.098;2022-09-12T12:54:46;22.40;65.10
38237;DHT22;50101;49.438;11.098;2022-09-12T12:57:37;22.50;65.60
38237;DHT22;50101;49.438;11.098;2022-09-12T13:00:27;22.50;65.60
38237;DHT22;50101;49.438;11.098;2022-09-12T13:05:25;22.60;65.30
38237;DHT22;50101;49.438;11.098;2022-09-12T13:07:57;22.60;66.40
38237;DHT22;50101;49.438;11.098;2022-09-12T13:10:27;22.60;66.10
38237;DHT22;50101;49.438;11.098;2022-09-12T13:12:57;22.50;65.00
38237;DHT22;50101;49.438;11.098;2022-09-12T13:18:05;22.50;65.60
38237;DHT22;50101;49.438;11.098;2022-09-12T13:20:37;22.50;65.70
38237;DHT22;50101;49.438;11.098;2022-09-12T13:23:24;22.60;65.70
38237;DHT22;50101;49.438;11.098;2022-09-12T13:25:58;22.60;65.70
38237;DHT22;50101;49.438;11.098;2022-09-12T13:28:27;22.60;65.70
38237;DHT22;50101;49.438;11.098;2022-09-12T13:31:00;22.60;65.50
38237;DHT22;50101;49.438;11.098;2022-09-12T13:33:45;22.60;66.10
38237;DHT22;50101;49.438;11.098;2022-09-12T13:36:39;22.50;65.80
38237;DHT22;50101;49.438;11.098;2022-09-12T13:39:16;22.50;66.30
38237;DHT22;50101;49.438;11.098;2022-09-12T13:44:29;22.50;65.60
38237;DHT22;50101;49.438;11.098;2022-09-12T13:47:00;22.50;65.70
38237;DHT22;50101;49.438;11.098;2022-09-12T13:49:32;22.50;65.60
38237;DHT22;50101;49.438;11.098;2022-09-12T13:52:06;22.50;65.60
38237;DHT22;50101;49.438;11.098;2022-09-12T13:54:35;22.50;65.60
38237;DHT22;50101;49.438;11.098;2022-09-12T13:57:04;22.50;65.60
38237;DHT22;50101;49.438;11.098;2022-09-12T13:59:38;22.50;65.60
38237;DHT22;50101;49.438;11.098;2022-09-12T14:02:20;22.50;65.60
38237;DHT22;50101;49.438;11.098;2022-09-12T14:04:48;22.40;65.50
38237;DHT22;50101;49.438;11.098;2022-09-12T14:07:55;22.40;65.50
38237;DHT22;50101;49.438;11.098;2022-09-12T14:10:35;22.50;65.60
38237;DHT22;50101;49.438;11.098;2022-09-12T14:13:11;22.50;65.10
38237;DHT22;50101;49.438;11.098;2022-09-12T14:15:40;22.40;65.60
38237;DHT22;50101;49.438;11.098;2022-09-12T14:18:30;22.40;65.00
38237;DHT22;50101;49.438;11.098;2022-09-12T14:21:07;22.40;65.00
38237;DHT22;50101;49.438;11.098;2022-09-12T14:23:42;22.40;65.00
38237;DHT22;50101;49.438;11.098;2022-09-12T14:26:12;22.40;64.50
38237;DHT22;50101;49.438;11.098;2022-09-12T14:28:43;22.40;64.60
38237;DHT22;50101;49.438;11.098;2022-09-12T14:36:36;22.40;64.40
38237;DHT22;50101;49.438;11.098;2022-09-12T14:39:14;22.40;64.40
38237;DHT22;50101;49.438;11.098;2022-09-12T14:41:42;22.40;64.40
38237;DHT22;50101;49.438;11.098;2022-09-12T14:44:21;22.40;64.30
38237;DHT22;50101;49.438;11.098;2022-09-12T14:46:49;22.40;64.20
38237;DHT22;50101;49.438;11.098;2022-09-12T14:49:24;22.40;64.10
38237;DHT22;50101;49.438;11.098;2022-09-12T14:51:56;22.40;64.20
38237;DHT22;50101;49.438;11.098;2022-09-12T14:56:57;22.40;64.10
38237;DHT22;50101;49.438;11.098;2022-09-12T15:04:40;22.40;63.40
38237;DHT22;50101;49.438;11.098;2022-09-12T15:07:43;22.40;63.60
38237;DHT22;50101;49.438;11.098;2022-09-12T15:13:08;22.40;63.30
38237;DHT22;50101;49.438;11.098;2022-09-12T15:15:38;22.50;63.30
38237;DHT22;50101;49.438;11.098;2022-09-12T15:18:06;22.50;63.20
38237;DHT22;50101;49.438;11.098;2022-09-12T15:20:35;22.50;62.90
38237;DHT22;50101;49.438;11.098;2022-09-12T15:23:03;22.50;62.90
38237;DHT22;50101;49.438;11.098;2022-09-12T15:25:29;22.50;63.50
38237;DHT22;50101;49.438;11.098;2022-09-12T15:27:56;22.50;63.50
38237;DHT22;50101;49.438;11.098;2022-09-12T15:30:22;22.50;63.00
38237;DHT22;50101;49.438;11.098;2022-09-12T15:32:49;22.50;62.70
38237;DHT22;50101;49.438;11.098;2022-09-12T15:35:18;22.50;61.90
38237;DHT22;50101;49.438;11.098;2022-09-12T15:37:48;22.50;62.70
38237;DHT22;50101;49.438;11.098;2022-09-12T15:40:15;22.50;62.70
38237;DHT22;50101;49.438;11.098;2022-09-12T15:42:42;22.50;62.90
38237;DHT22;50101;49.438;11.098;2022-09-12T15:45:30;22.50;63.10
38237;DHT22;50101;49.438;11.098;2022-09-12T15:47:58;22.60;62.30
38237;DHT22;50101;49.438;11.098;2022-09-12T15:50:25;22.60;61.40
38237;DHT22;50101;49.438;11.098;2022-09-12T15:52:53;22.60;62.00
38237;DHT22;50101;49.438;11.098;2022-09-12T15:55:22;22.60;62.30
38237;DHT22;50101;49.438;11.098;2022-09-12T15:57:50;22.60;62.40
38237;DHT22;50101;49.438;11.098;2022-09-12T16:00:17;22.60;62.50
38237;DHT22;50101;49.438;11.098;2022-09-12T16:02:50;22.60;62.60
38237;DHT22;50101;49.438;11.098;2022-09-12T16:05:22;22.60;62.60
38237;DHT22;50101;49.438;11.098;2022-09-12T16:07:51;22.60;62.80
38237;DHT22;50101;49.438;11.098;2022-09-12T16:10:26;22.60;62.60
38237;DHT22;50101;49.438;11.098;2022-09-12T16:12:54;22.50;62.80
38237;DHT22;50101;49.438;11.098;2022-09-12T16:15:22;22.50;62.70
38237;DHT22;50101;49.438;11.098;2022-09-12T16:17:49;22.50;62.80
38237;DHT22;50101;49.438;11.098;2022-09-12T16:20:16;22.50;63.10
38237;DHT22;50101;49.438;11.098;2022-09-12T16:22:44;22.50;62.90
38237;DHT22;50101;49.438;11.098;2022-09-12T16:25:11;22.60;63.30
38237;DHT22;50101;49.438;11.098;2022-09-12T16:27:38;22.60;63.00
38237;DHT22;50101;49.438;11.098;2022-09-12T16:30:05;22.60;63.20
38237;DHT22;50101;49.438;11.098;2022-09-12T16:32:32;22.60;63.00
38237;DHT22;50101;49.438;11.098;2022-09-12T16:34:59;22.60;63.20
38237;DHT22;50101;49.438;11.098;2022-09-12T16:37:26;22.60;63.00
38237;DHT22;50101;49.438;11.098;2022-09-12T16:39:52;22.60;63.00
38237;DHT22;50101;49.438;11.098;2022-09-12T16:42:19;22.60;62.40
38237;DHT22;50101;49.438;11.098;2022-09-12T16:44:46;22.50;63.10
38237;DHT22;50101;49.438;11.098;2022-09-12T16:47:13;22.50;63.30
38237;DHT22;50101;49.438;11.098;2022-09-12T16:49:40;22.50;63.50
38237;DHT22;50101;49.438;11.098;2022-09-12T16:52:07;22.50;63.50
38237;DHT22;50101;49.438;11.098;2022-09-12T16:54:34;22.40;63.60
38237;DHT22;50101;49.438;11.098;2022-09-12T16:57:00;22.40;63.80
38237;DHT22;50101;49.438;11.098;2022-09-12T16:59:30;22.40;63.90
38237;DHT22;50101;49.438;11.098;2022-09-12T17:01:57;22.40;63.90
38237;DHT22;50101;49.438;11.098;2022-09-12T17:04:24;22.40;63.90
38237;DHT22;50101;49.438;11.098;2022-09-12T17:06:50;22.50;63.90
38237;DHT22;50101;49.438;11.098;2022-09-12T17:09:17;22.40;63.90
38237;DHT22;50101;49.438;11.098;2022-09-12T17:11:45;22.40;63.50
38237;DHT22;50101;49.438;11.098;2022-09-12T17:14:15;22.40;64.20
38237;DHT22;50101;49.438;11.098;2022-09-12T17:16:44;22.30;64.30
38237;DHT22;50101;49.438;11.098;2022-09-12T17:19:23;22.30;64.30
38237;DHT22;50101;49.438;11.098;2022-09-12T17:21:51;22.30;64.50
38237;DHT22;50101;49.438;11.098;2022-09-12T17:24:19;22.30;64.50
38237;DHT22;50101;49.438;11.098;2022-09-12T17:26:46;22.30;64.70
38237;DHT22;50101;49.438;11.098;2022-09-12T17:29:14;22.30;64.70
38237;DHT22;50101;49.438;11.098;2022-09-12T17:31:41;22.30;64.90
38237;DHT22;50101;49.438;11.098;2022-09-12T17:34:10;22.30;64.50
38237;DHT22;50101;49.438;11.098;2022-09-12T17:36:40;22.20;65.10
38237;DHT22;50101;49.438;11.098;2022-09-12T17:39:10;22.20;65.30
38237;DHT22;50101;49.438;11.098;2022-09-12T17:41:37;22.30;65.40
38237;DHT22;50101;49.438;11.098;2022-09-12T17:44:04;22.30;65.30
38237;DHT22;50101;49.438;11.098;2022-09-12T17:46:34;22.40;65.40
38237;DHT22;50101;49.438;11.098;2022-09-12T17:49:05;22.50;65.60
38237;DHT22;50101;49.438;11.098;2022-09-12T17:51:32;22.50;65.30
38237;DHT22;50101;49.438;11.098;2022-09-12T17:54:09;22.50;65.00
38237;DHT22;50101;49.438;11.098;2022-09-12T17:56:37;22.50;65.20
38237;DHT22;50101;49.438;11.098;2022-09-12T17:59:05;22.50;65.40
38237;DHT22;50101;49.438;11.098;2022-09-12T18:01:32;22.50;65.60
38237;DHT22;50101;49.438;11.098;2022-09-12T18:04:18;22.40;65.50